Aérodrome :
LOGIN :

S'inscrire | Disclaimer

   EN    FR    IT 

 










Légende :    VFR   VFR Marginal   IFR   IFR Intensif   IFR Très Intensif
Visi : 
Plafond : 
>= 8 km
>= 3000ft
5 à 8 km
1000 à 3000 ft
1500m à 5 km
500 à 1000 ft
800 à 1500m
200 à 500 ft
< 800m
< 200 ft
Symboles :   Orages  Brouillard  Fortes neiges  Fortes précipitations  Vent > 20 kt
SIGMETs :   Divers  Orages  Givrage  Turbulence  Onde Orograph.  Cendres Volcan.







- Altitude de l'aérodrome : 779 ft
- Code IATA : CMF
- Voir les cartes d'approche


LFLB - Chambery / Aix-Les-Bains

DERNIER METAR :
  • 240430Z AUTO 00000KT CAVOK 17/15 Q1018 NOSIG

METARs EXPIRÉS :
  • 240400Z AUTO 00000KT CAVOK 17/16 Q1018 NOSIG
  • 240330Z AUTO VRB02KT CAVOK 17/15 Q1018 NOSIG
  • 240300Z AUTO 19001KT CAVOK 17/15 Q1018 NOSIG
  • 240230Z AUTO 00000KT CAVOK 18/16 Q1018 NOSIG
  • 240200Z AUTO 00000KT CAVOK 17/15 Q1018 NOSIG

TAF TAF LFLB
Valide du 24 à 00h jusqu'au 25 à 00h UTC


232300Z 2400/2424 22005KT CAVOK
PROB40
TEMPO 2410/2420 FEW060TCU
Pas de NOTAMs connus pour ce terrain.



MET'MAP, la Météo Aéronautique d'un coup d'oeil ! - Copyright ORBIFLY Décembre 2007 - Disclaimer

ORBIFLY MET'MAP TEAM :

Programmation & Développement : Alexandra Zaïnal
Conception & Développement : Baudouin d'Aumeries
Co-Programmation & Développement : Marc-Olivier Méhu
Soutien technique & logistique : Manuel Goepfert

Contact : metmap@orbifly.com




SOURCES & CREDITS :

   NOAA